sensor_id;sensor_type;location;lat;lon;timestamp;temperature;humidity
8408;DHT22;4241;48.452;9.216;2022-10-19T00:00:04;12.40;99.90
8408;DHT22;4241;48.452;9.216;2022-10-19T00:02:35;12.30;99.90
8408;DHT22;4241;48.452;9.216;2022-10-19T00:05:02;12.30;99.90
8408;DHT22;4241;48.452;9.216;2022-10-19T00:07:32;12.30;99.90
8408;DHT22;4241;48.452;9.216;2022-10-19T00:09:59;12.40;99.90
8408;DHT22;4241;48.452;9.216;2022-10-19T00:12:26;12.40;99.90
8408;DHT22;4241;48.452;9.216;2022-10-19T00:14:53;12.50;99.90
8408;DHT22;4241;48.452;9.216;2022-10-19T00:17:20;12.60;99.90
8408;DHT22;4241;48.452;9.216;2022-10-19T00:19:47;12.40;99.90
8408;DHT22;4241;48.452;9.216;2022-10-19T00:22:14;12.30;99.90
8408;DHT22;4241;48.452;9.216;2022-10-19T00:24:42;12.20;99.90
8408;DHT22;4241;48.452;9.216;2022-10-19T00:27:10;12.10;99.90
8408;DHT22;4241;48.452;9.216;2022-10-19T00:29:38;12.20;99.90
8408;DHT22;4241;48.452;9.216;2022-10-19T00:32:05;12.20;99.90
8408;DHT22;4241;48.452;9.216;2022-10-19T00:34:32;12.10;99.90
8408;DHT22;4241;48.452;9.216;2022-10-19T00:36:59;12.10;99.90
8408;DHT22;4241;48.452;9.216;2022-10-19T00:39:26;12.00;99.90
8408;DHT22;4241;48.452;9.216;2022-10-19T00:41:55;12.10;99.90
8408;DHT22;4241;48.452;9.216;2022-10-19T00:44:58;12.10;99.90
8408;DHT22;4241;48.452;9.216;2022-10-19T00:47:25;12.00;99.90
8408;DHT22;4241;48.452;9.216;2022-10-19T00:49:53;12.10;99.90
8408;DHT22;4241;48.452;9.216;2022-10-19T00:52:22;12.20;99.90
8408;DHT22;4241;48.452;9.216;2022-10-19T00:54:51;12.10;99.90
8408;DHT22;4241;48.452;9.216;2022-10-19T00:57:21;12.00;99.90
8408;DHT22;4241;48.452;9.216;2022-10-19T00:59:48;12.10;99.90
8408;DHT22;4241;48.452;9.216;2022-10-19T01:02:17;12.00;99.90
8408;DHT22;4241;48.452;9.216;2022-10-19T01:04:48;11.10;99.90
8408;DHT22;4241;48.452;9.216;2022-10-19T01:07:16;11.80;99.90
8408;DHT22;4241;48.452;9.216;2022-10-19T01:09:43;11.80;99.90
8408;DHT22;4241;48.452;9.216;2022-10-19T01:12:24;12.00;99.90
8408;DHT22;4241;48.452;9.216;2022-10-19T01:15:03;12.00;99.90
8408;DHT22;4241;48.452;9.216;2022-10-19T01:17:40;11.80;99.90
8408;DHT22;4241;48.452;9.216;2022-10-19T01:29:48;11.60;99.90
8408;DHT22;4241;48.452;9.216;2022-10-19T01:32:20;11.60;99.90
8408;DHT22;4241;48.452;9.216;2022-10-19T01:34:52;11.40;99.90
8408;DHT22;4241;48.452;9.216;2022-10-19T01:37:27;11.40;99.90
8408;DHT22;4241;48.452;9.216;2022-10-19T01:40:04;11.30;99.90
8408;DHT22;4241;48.452;9.216;2022-10-19T01:42:37;11.30;99.90
8408;DHT22;4241;48.452;9.216;2022-10-19T01:45:13;11.10;99.90
8408;DHT22;4241;48.452;9.216;2022-10-19T01:47:46;11.10;99.90
8408;DHT22;4241;48.452;9.216;2022-10-19T01:50:20;11.00;99.90
8408;DHT22;4241;48.452;9.216;2022-10-19T01:52:50;11.10;99.90
8408;DHT22;4241;48.452;9.216;2022-10-19T01:55:19;11.30;99.90
8408;DHT22;4241;48.452;9.216;2022-10-19T01:57:52;11.40;99.90
8408;DHT22;4241;48.452;9.216;2022-10-19T02:00:23;11.40;99.90
8408;DHT22;4241;48.452;9.216;2022-10-19T02:02:53;11.50;99.90
8408;DHT22;4241;48.452;9.216;2022-10-19T02:05:23;11.30;99.90
8408;DHT22;4241;48.452;9.216;2022-10-19T02:07:56;11.40;99.90
8408;DHT22;4241;48.452;9.216;2022-10-19T02:10:24;11.50;99.90
8408;DHT22;4241;48.452;9.216;2022-10-19T02:12:53;11.10;99.90
8408;DHT22;4241;48.452;9.216;2022-10-19T02:15:24;11.00;99.90
8408;DHT22;4241;48.452;9.216;2022-10-19T02:17:55;10.90;99.90
8408;DHT22;4241;48.452;9.216;2022-10-19T02:20:25;10.80;99.90
8408;DHT22;4241;48.452;9.216;2022-10-19T02:22:53;11.00;99.90
8408;DHT22;4241;48.452;9.216;2022-10-19T02:25:20;11.10;99.90
8408;DHT22;4241;48.452;9.216;2022-10-19T02:27:47;10.90;99.90
8408;DHT22;4241;48.452;9.216;2022-10-19T02:30:16;11.00;99.90
8408;DHT22;4241;48.452;9.216;2022-10-19T02:32:49;10.80;99.90
8408;DHT22;4241;48.452;9.216;2022-10-19T02:35:16;10.80;99.90
8408;DHT22;4241;48.452;9.216;2022-10-19T02:37:44;10.90;99.90
8408;DHT22;4241;48.452;9.216;2022-10-19T02:40:11;10.90;99.90
8408;DHT22;4241;48.452;9.216;2022-10-19T02:42:42;10.70;99.90
8408;DHT22;4241;48.452;9.216;2022-10-19T02:45:14;10.80;99.90
8408;DHT22;4241;48.452;9.216;2022-10-19T02:47:49;10.80;99.90
8408;DHT22;4241;48.452;9.216;2022-10-19T02:50:18;10.60;99.90
8408;DHT22;4241;48.452;9.216;2022-10-19T02:52:46;10.60;99.90
8408;DHT22;4241;48.452;9.216;2022-10-19T02:55:13;10.70;99.90
8408;DHT22;4241;48.452;9.216;2022-10-19T02:57:40;10.80;99.90
8408;DHT22;4241;48.452;9.216;2022-10-19T03:00:08;10.80;99.90
8408;DHT22;4241;48.452;9.216;2022-10-19T03:02:35;10.90;99.90
8408;DHT22;4241;48.452;9.216;2022-10-19T03:05:05;10.90;99.90
8408;DHT22;4241;48.452;9.216;2022-10-19T03:07:32;11.00;99.90
8408;DHT22;4241;48.452;9.216;2022-10-19T03:09:59;10.90;99.90
8408;DHT22;4241;48.452;9.216;2022-10-19T03:12:26;10.90;99.90
8408;DHT22;4241;48.452;9.216;2022-10-19T03:14:53;10.90;99.90
8408;DHT22;4241;48.452;9.216;2022-10-19T03:17:20;10.80;99.90
8408;DHT22;4241;48.452;9.216;2022-10-19T03:19:47;10.80;99.90
8408;DHT22;4241;48.452;9.216;2022-10-19T03:22:15;10.80;99.90
8408;DHT22;4241;48.452;9.216;2022-10-19T03:24:42;10.70;99.90
8408;DHT22;4241;48.452;9.216;2022-10-19T03:27:10;10.70;99.90
8408;DHT22;4241;48.452;9.216;2022-10-19T03:29:37;10.70;99.90
8408;DHT22;4241;48.452;9.216;2022-10-19T03:32:04;10.70;99.90
8408;DHT22;4241;48.452;9.216;2022-10-19T03:34:31;10.20;99.90
8408;DHT22;4241;48.452;9.216;2022-10-19T03:36:58;10.00;99.90
8408;DHT22;4241;48.452;9.216;2022-10-19T03:39:27;10.20;99.90
8408;DHT22;4241;48.452;9.216;2022-10-19T03:41:54;10.40;99.90
8408;DHT22;4241;48.452;9.216;2022-10-19T03:44:21;10.50;99.90
8408;DHT22;4241;48.452;9.216;2022-10-19T03:46:48;10.70;99.90
8408;DHT22;4241;48.452;9.216;2022-10-19T03:49:15;10.60;99.90
8408;DHT22;4241;48.452;9.216;2022-10-19T03:51:42;10.40;99.90
8408;DHT22;4241;48.452;9.216;2022-10-19T03:54:12;10.40;99.90
8408;DHT22;4241;48.452;9.216;2022-10-19T03:56:41;10.40;99.90
8408;DHT22;4241;48.452;9.216;2022-10-19T03:59:11;10.50;99.90
8408;DHT22;4241;48.452;9.216;2022-10-19T04:01:40;10.50;99.90
8408;DHT22;4241;48.452;9.216;2022-10-19T04:04:10;10.40;99.90
8408;DHT22;4241;48.452;9.216;2022-10-19T04:06:40;10.40;99.90
8408;DHT22;4241;48.452;9.216;2022-10-19T04:09:10;10.20;99.90
8408;DHT22;4241;48.452;9.216;2022-10-19T04:11:37;10.10;99.90
8408;DHT22;4241;48.452;9.216;2022-10-19T04:14:06;10.30;99.90
8408;DHT22;4241;48.452;9.216;2022-10-19T04:16:34;10.40;99.90
8408;DHT22;4241;48.452;9.216;2022-10-19T04:19:01;10.30;99.90
8408;DHT22;4241;48.452;9.216;2022-10-19T04:21:29;10.50;99.90
8408;DHT22;4241;48.452;9.216;2022-10-19T04:23:58;10.40;99.90
8408;DHT22;4241;48.452;9.216;2022-10-19T04:26:26;10.40;99.90
8408;DHT22;4241;48.452;9.216;2022-10-19T04:28:53;10.40;99.90
8408;DHT22;4241;48.452;9.216;2022-10-19T04:31:23;10.30;99.90
8408;DHT22;4241;48.452;9.216;2022-10-19T04:33:50;10.30;99.90
8408;DHT22;4241;48.452;9.216;2022-10-19T04:36:17;10.30;99.90
8408;DHT22;4241;48.452;9.216;2022-10-19T04:38:45;10.10;99.90
8408;DHT22;4241;48.452;9.216;2022-10-19T04:41:13;10.10;99.90
8408;DHT22;4241;48.452;9.216;2022-10-19T04:43:40;10.10;99.90
8408;DHT22;4241;48.452;9.216;2022-10-19T04:46:11;10.10;99.90
8408;DHT22;4241;48.452;9.216;2022-10-19T04:48:40;10.10;99.90
8408;DHT22;4241;48.452;9.216;2022-10-19T04:51:08;10.10;99.90
8408;DHT22;4241;48.452;9.216;2022-10-19T04:53:37;10.10;99.90
8408;DHT22;4241;48.452;9.216;2022-10-19T04:56:06;10.30;99.90
8408;DHT22;4241;48.452;9.216;2022-10-19T04:58:33;10.20;99.90
8408;DHT22;4241;48.452;9.216;2022-10-19T05:01:06;10.20;99.90
8408;DHT22;4241;48.452;9.216;2022-10-19T05:03:34;10.40;99.90
8408;DHT22;4241;48.452;9.216;2022-10-19T05:06:03;10.40;99.90
8408;DHT22;4241;48.452;9.216;2022-10-19T05:08:30;10.50;99.90
8408;DHT22;4241;48.452;9.216;2022-10-19T05:11:00;10.40;99.90
8408;DHT22;4241;48.452;9.216;2022-10-19T05:13:28;10.40;99.90
8408;DHT22;4241;48.452;9.216;2022-10-19T05:15:56;10.50;99.90
8408;DHT22;4241;48.452;9.216;2022-10-19T05:18:23;10.50;99.90
8408;DHT22;4241;48.452;9.216;2022-10-19T05:20:50;10.40;99.90
8408;DHT22;4241;48.452;9.216;2022-10-19T05:23:18;10.50;99.90
8408;DHT22;4241;48.452;9.216;2022-10-19T05:25:45;10.40;99.90
8408;DHT22;4241;48.452;9.216;2022-10-19T05:28:12;10.50;99.90
8408;DHT22;4241;48.452;9.216;2022-10-19T05:30:39;10.40;99.90
8408;DHT22;4241;48.452;9.216;2022-10-19T05:33:06;10.60;99.90
8408;DHT22;4241;48.452;9.216;2022-10-19T05:35:33;10.60;99.90
8408;DHT22;4241;48.452;9.216;2022-10-19T05:38:00;10.60;99.90
8408;DHT22;4241;48.452;9.216;2022-10-19T05:40:29;10.60;99.90
8408;DHT22;4241;48.452;9.216;2022-10-19T05:42:56;10.60;99.90
8408;DHT22;4241;48.452;9.216;2022-10-19T05:45:23;10.50;99.90
8408;DHT22;4241;48.452;9.216;2022-10-19T05:47:50;10.70;99.90
8408;DHT22;4241;48.452;9.216;2022-10-19T05:50:17;10.70;99.90
8408;DHT22;4241;48.452;9.216;2022-10-19T05:52:44;10.70;99.90
8408;DHT22;4241;48.452;9.216;2022-10-19T05:55:11;10.80;99.90
8408;DHT22;4241;48.452;9.216;2022-10-19T05:57:39;10.80;99.90
8408;DHT22;4241;48.452;9.216;2022-10-19T06:00:08;10.80;99.90
8408;DHT22;4241;48.452;9.216;2022-10-19T06:02:35;10.80;99.90
8408;DHT22;4241;48.452;9.216;2022-10-19T06:05:02;10.90;99.90
8408;DHT22;4241;48.452;9.216;2022-10-19T06:07:29;11.00;99.90
8408;DHT22;4241;48.452;9.216;2022-10-19T06:09:56;11.10;99.90
8408;DHT22;4241;48.452;9.216;2022-10-19T06:12:23;11.10;99.90
8408;DHT22;4241;48.452;9.216;2022-10-19T06:14:52;11.10;99.90
8408;DHT22;4241;48.452;9.216;2022-10-19T06:17:19;11.10;99.90
8408;DHT22;4241;48.452;9.216;2022-10-19T06:19:46;11.10;99.90
8408;DHT22;4241;48.452;9.216;2022-10-19T06:22:13;11.20;99.90
8408;DHT22;4241;48.452;9.216;2022-10-19T06:24:40;11.20;99.90
8408;DHT22;4241;48.452;9.216;2022-10-19T06:27:07;11.10;99.90
8408;DHT22;4241;48.452;9.216;2022-10-19T06:29:34;11.20;99.90
8408;DHT22;4241;48.452;9.216;2022-10-19T06:32:03;11.30;99.90
8408;DHT22;4241;48.452;9.216;2022-10-19T06:34:30;11.40;99.90
8408;DHT22;4241;48.452;9.216;2022-10-19T06:36:57;11.50;99.90
8408;DHT22;4241;48.452;9.216;2022-10-19T06:39:24;11.80;99.90
8408;DHT22;4241;48.452;9.216;2022-10-19T06:41:51;11.90;99.90
8408;DHT22;4241;48.452;9.216;2022-10-19T06:44:18;11.90;99.90
8408;DHT22;4241;48.452;9.216;2022-10-19T06:46:45;12.10;99.90
8408;DHT22;4241;48.452;9.216;2022-10-19T06:49:14;12.00;99.90
8408;DHT22;4241;48.452;9.216;2022-10-19T06:51:41;11.90;99.90
8408;DHT22;4241;48.452;9.216;2022-10-19T06:54:08;11.90;99.90
8408;DHT22;4241;48.452;9.216;2022-10-19T06:56:35;11.90;99.90
8408;DHT22;4241;48.452;9.216;2022-10-19T06:59:02;12.00;99.90
8408;DHT22;4241;48.452;9.216;2022-10-19T07:01:29;12.00;99.90
8408;DHT22;4241;48.452;9.216;2022-10-19T07:03:56;12.00;99.90
8408;DHT22;4241;48.452;9.216;2022-10-19T07:06:26;12.00;99.90
8408;DHT22;4241;48.452;9.216;2022-10-19T07:08:53;12.00;99.90
8408;DHT22;4241;48.452;9.216;2022-10-19T07:11:21;12.00;99.90
8408;DHT22;4241;48.452;9.216;2022-10-19T07:13:48;12.00;99.90
8408;DHT22;4241;48.452;9.216;2022-10-19T07:16:16;12.10;99.90
8408;DHT22;4241;48.452;9.216;2022-10-19T07:18:44;12.20;99.90
8408;DHT22;4241;48.452;9.216;2022-10-19T07:21:12;12.30;99.90
8408;DHT22;4241;48.452;9.216;2022-10-19T07:23:43;12.40;99.90
8408;DHT22;4241;48.452;9.216;2022-10-19T07:26:13;12.60;99.90
8408;DHT22;4241;48.452;9.216;2022-10-19T07:28:41;12.70;99.90
8408;DHT22;4241;48.452;9.216;2022-10-19T07:31:10;12.80;99.90
8408;DHT22;4241;48.452;9.216;2022-10-19T07:33:38;12.80;99.90
8408;DHT22;4241;48.452;9.216;2022-10-19T07:36:07;13.00;99.90
8408;DHT22;4241;48.452;9.216;2022-10-19T07:38:35;13.00;99.90
8408;DHT22;4241;48.452;9.216;2022-10-19T07:41:05;13.20;99.90
8408;DHT22;4241;48.452;9.216;2022-10-19T07:43:33;13.20;99.90
8408;DHT22;4241;48.452;9.216;2022-10-19T07:46:02;13.20;99.90
8408;DHT22;4241;48.452;9.216;2022-10-19T07:48:29;13.30;99.90
8408;DHT22;4241;48.452;9.216;2022-10-19T07:50:57;13.40;99.90
8408;DHT22;4241;48.452;9.216;2022-10-19T07:53:24;13.50;99.90
8408;DHT22;4241;48.452;9.216;2022-10-19T07:55:51;13.40;99.90
8408;DHT22;4241;48.452;9.216;2022-10-19T07:58:19;13.50;99.90
8408;DHT22;4241;48.452;9.216;2022-10-19T08:00:46;13.70;99.90
8408;DHT22;4241;48.452;9.216;2022-10-19T08:03:13;13.80;99.90
8408;DHT22;4241;48.452;9.216;2022-10-19T08:05:40;13.70;99.90
8408;DHT22;4241;48.452;9.216;2022-10-19T08:08:07;13.70;99.90
8408;DHT22;4241;48.452;9.216;2022-10-19T08:10:34;13.90;99.90
8408;DHT22;4241;48.452;9.216;2022-10-19T08:13:01;13.90;99.90
8408;DHT22;4241;48.452;9.216;2022-10-19T08:15:30;14.00;99.90
8408;DHT22;4241;48.452;9.216;2022-10-19T08:17:57;14.00;99.90
8408;DHT22;4241;48.452;9.216;2022-10-19T08:20:25;14.20;99.90
8408;DHT22;4241;48.452;9.216;2022-10-19T08:22:52;14.20;99.90
8408;DHT22;4241;48.452;9.216;2022-10-19T08:25:19;14.10;99.90
8408;DHT22;4241;48.452;9.216;2022-10-19T08:27:46;14.20;99.90
8408;DHT22;4241;48.452;9.216;2022-10-19T08:30:13;14.30;99.90
8408;DHT22;4241;48.452;9.216;2022-10-19T08:32:42;14.30;99.90
8408;DHT22;4241;48.452;9.216;2022-10-19T08:35:09;14.30;99.90
8408;DHT22;4241;48.452;9.216;2022-10-19T08:37:36;14.20;99.90
8408;DHT22;4241;48.452;9.216;2022-10-19T08:40:04;14.40;99.90
8408;DHT22;4241;48.452;9.216;2022-10-19T08:42:42;14.40;99.90
8408;DHT22;4241;48.452;9.216;2022-10-19T08:45:40;14.50;99.90
8408;DHT22;4241;48.452;9.216;2022-10-19T08:48:28;14.40;99.90
8408;DHT22;4241;48.452;9.216;2022-10-19T08:50:58;14.40;99.90
8408;DHT22;4241;48.452;9.216;2022-10-19T08:53:31;14.40;99.90
8408;DHT22;4241;48.452;9.216;2022-10-19T08:56:14;14.60;99.90
8408;DHT22;4241;48.452;9.216;2022-10-19T08:59:07;14.60;99.90
8408;DHT22;4241;48.452;9.216;2022-10-19T09:01:39;14.50;99.90
8408;DHT22;4241;48.452;9.216;2022-10-19T09:04:16;14.50;99.90
8408;DHT22;4241;48.452;9.216;2022-10-19T09:07:02;14.40;99.90
8408;DHT22;4241;48.452;9.216;2022-10-19T09:09:39;14.50;99.90
8408;DHT22;4241;48.452;9.216;2022-10-19T09:12:10;14.70;99.90
8408;DHT22;4241;48.452;9.216;2022-10-19T09:14:46;14.90;99.90
8408;DHT22;4241;48.452;9.216;2022-10-19T09:17:15;14.90;99.90
8408;DHT22;4241;48.452;9.216;2022-10-19T09:19:44;14.70;99.90
8408;DHT22;4241;48.452;9.216;2022-10-19T09:22:18;14.80;99.90
8408;DHT22;4241;48.452;9.216;2022-10-19T09:24:49;15.00;99.90
8408;DHT22;4241;48.452;9.216;2022-10-19T09:27:21;15.20;99.90
8408;DHT22;4241;48.452;9.216;2022-10-19T09:29:52;15.30;99.90
8408;DHT22;4241;48.452;9.216;2022-10-19T09:32:24;15.30;99.90
8408;DHT22;4241;48.452;9.216;2022-10-19T09:34:56;15.30;99.90
8408;DHT22;4241;48.452;9.216;2022-10-19T09:37:25;15.20;99.90
8408;DHT22;4241;48.452;9.216;2022-10-19T09:39:53;15.30;99.90
8408;DHT22;4241;48.452;9.216;2022-10-19T09:42:22;16.20;99.90
8408;DHT22;4241;48.452;9.216;2022-10-19T09:44:51;15.50;99.90
8408;DHT22;4241;48.452;9.216;2022-10-19T09:47:32;15.70;99.90
8408;DHT22;4241;48.452;9.216;2022-10-19T09:50:15;15.80;99.90
8408;DHT22;4241;48.452;9.216;2022-10-19T09:52:44;16.00;99.90
8408;DHT22;4241;48.452;9.216;2022-10-19T09:55:25;15.90;99.90
8408;DHT22;4241;48.452;9.216;2022-10-19T09:57:59;16.10;99.90
8408;DHT22;4241;48.452;9.216;2022-10-19T10:00:32;16.30;99.90
8408;DHT22;4241;48.452;9.216;2022-10-19T10:02:59;16.40;99.90
8408;DHT22;4241;48.452;9.216;2022-10-19T10:05:32;16.40;99.90
8408;DHT22;4241;48.452;9.216;2022-10-19T10:08:00;16.30;99.90
8408;DHT22;4241;48.452;9.216;2022-10-19T10:10:28;16.30;99.90
8408;DHT22;4241;48.452;9.216;2022-10-19T10:12:58;16.30;99.90
8408;DHT22;4241;48.452;9.216;2022-10-19T10:15:26;16.50;99.90
8408;DHT22;4241;48.452;9.216;2022-10-19T10:17:55;16.80;99.90
8408;DHT22;4241;48.452;9.216;2022-10-19T10:20:25;16.70;99.90
8408;DHT22;4241;48.452;9.216;2022-10-19T10:22:58;17.00;99.90
8408;DHT22;4241;48.452;9.216;2022-10-19T10:25:28;17.20;99.90
8408;DHT22;4241;48.452;9.216;2022-10-19T10:27:59;17.60;99.90
8408;DHT22;4241;48.452;9.216;2022-10-19T10:30:31;17.80;99.90
8408;DHT22;4241;48.452;9.216;2022-10-19T10:32:59;17.50;99.90
8408;DHT22;4241;48.452;9.216;2022-10-19T10:35:31;17.20;99.90
8408;DHT22;4241;48.452;9.216;2022-10-19T10:38:15;17.10;99.90
8408;DHT22;4241;48.452;9.216;2022-10-19T10:40:49;17.00;99.90
8408;DHT22;4241;48.452;9.216;2022-10-19T10:43:19;16.80;99.90
8408;DHT22;4241;48.452;9.216;2022-10-19T10:45:49;16.60;99.90
8408;DHT22;4241;48.452;9.216;2022-10-19T10:48:26;16.80;99.90
8408;DHT22;4241;48.452;9.216;2022-10-19T10:50:53;16.80;99.90
8408;DHT22;4241;48.452;9.216;2022-10-19T10:53:43;16.70;99.90
8408;DHT22;4241;48.452;9.216;2022-10-19T10:56:22;16.70;99.90
8408;DHT22;4241;48.452;9.216;2022-10-19T10:58:54;16.90;99.90
8408;DHT22;4241;48.452;9.216;2022-10-19T11:01:23;17.00;99.90
8408;DHT22;4241;48.452;9.216;2022-10-19T11:03:55;17.00;99.90
8408;DHT22;4241;48.452;9.216;2022-10-19T11:06:25;17.00;99.90
8408;DHT22;4241;48.452;9.216;2022-10-19T11:08:59;17.00;99.90
8408;DHT22;4241;48.452;9.216;2022-10-19T11:11:33;17.10;99.90
8408;DHT22;4241;48.452;9.216;2022-10-19T11:16:58;17.00;99.90
8408;DHT22;4241;48.452;9.216;2022-10-19T11:19:32;17.00;99.90
8408;DHT22;4241;48.452;9.216;2022-10-19T11:22:07;16.90;99.90
8408;DHT22;4241;48.452;9.216;2022-10-19T11:24:50;17.10;99.90
8408;DHT22;4241;48.452;9.216;2022-10-19T11:27:28;17.00;99.90
8408;DHT22;4241;48.452;9.216;2022-10-19T11:30:18;17.10;99.90
8408;DHT22;4241;48.452;9.216;2022-10-19T11:32:52;17.40;99.90
8408;DHT22;4241;48.452;9.216;2022-10-19T11:35:29;17.30;99.90
8408;DHT22;4241;48.452;9.216;2022-10-19T11:38:15;17.70;99.90
8408;DHT22;4241;48.452;9.216;2022-10-19T11:40:52;17.70;99.90
8408;DHT22;4241;48.452;9.216;2022-10-19T11:43:27;17.90;99.90
8408;DHT22;4241;48.452;9.216;2022-10-19T11:46:03;17.90;99.90
8408;DHT22;4241;48.452;9.216;2022-10-19T11:48:50;17.90;99.90
8408;DHT22;4241;48.452;9.216;2022-10-19T11:51:24;18.10;99.90
8408;DHT22;4241;48.452;9.216;2022-10-19T11:54:01;18.20;99.90
8408;DHT22;4241;48.452;9.216;2022-10-19T11:56:39;17.90;99.90
8408;DHT22;4241;48.452;9.216;2022-10-19T11:59:17;18.00;99.90
8408;DHT22;4241;48.452;9.216;2022-10-19T12:01:55;17.90;99.90
8408;DHT22;4241;48.452;9.216;2022-10-19T12:04:40;17.70;99.90
8408;DHT22;4241;48.452;9.216;2022-10-19T12:07:36;17.60;99.90
8408;DHT22;4241;48.452;9.216;2022-10-19T12:10:17;17.70;99.90
8408;DHT22;4241;48.452;9.216;2022-10-19T12:12:48;17.50;99.90
8408;DHT22;4241;48.452;9.216;2022-10-19T12:15:21;17.40;99.90
8408;DHT22;4241;48.452;9.216;2022-10-19T12:17:51;17.60;99.90
8408;DHT22;4241;48.452;9.216;2022-10-19T12:20:24;17.50;99.90
8408;DHT22;4241;48.452;9.216;2022-10-19T12:22:51;17.60;99.90
8408;DHT22;4241;48.452;9.216;2022-10-19T12:25:20;17.40;99.90
8408;DHT22;4241;48.452;9.216;2022-10-19T12:27:49;17.60;99.90
8408;DHT22;4241;48.452;9.216;2022-10-19T12:30:18;17.30;99.90
8408;DHT22;4241;48.452;9.216;2022-10-19T12:32:57;17.20;99.90
8408;DHT22;4241;48.452;9.216;2022-10-19T12:35:40;17.20;99.90
8408;DHT22;4241;48.452;9.216;2022-10-19T12:38:14;17.40;99.90
8408;DHT22;4241;48.452;9.216;2022-10-19T12:40:49;17.50;99.90
8408;DHT22;4241;48.452;9.216;2022-10-19T12:43:25;17.40;99.90
8408;DHT22;4241;48.452;9.216;2022-10-19T12:46:01;17.50;99.90
8408;DHT22;4241;48.452;9.216;2022-10-19T12:48:31;17.40;99.90
8408;DHT22;4241;48.452;9.216;2022-10-19T12:51:14;17.30;99.90
8408;DHT22;4241;48.452;9.216;2022-10-19T12:53:44;17.30;99.90
8408;DHT22;4241;48.452;9.216;2022-10-19T12:56:19;17.10;99.90
8408;DHT22;4241;48.452;9.216;2022-10-19T12:58:54;17.10;99.90
8408;DHT22;4241;48.452;9.216;2022-10-19T13:01:25;17.10;99.90
8408;DHT22;4241;48.452;9.216;2022-10-19T13:04:06;17.00;99.90
8408;DHT22;4241;48.452;9.216;2022-10-19T13:06:36;16.90;99.90
8408;DHT22;4241;48.452;9.216;2022-10-19T13:09:07;16.90;99.90
8408;DHT22;4241;48.452;9.216;2022-10-19T13:11:35;16.80;99.90
8408;DHT22;4241;48.452;9.216;2022-10-19T13:14:06;16.80;99.90
8408;DHT22;4241;48.452;9.216;2022-10-19T13:16:58;16.80;99.90
8408;DHT22;4241;48.452;9.216;2022-10-19T13:19:25;16.60;99.90
8408;DHT22;4241;48.452;9.216;2022-10-19T13:25:21;16.80;99.90
8408;DHT22;4241;48.452;9.216;2022-10-19T13:27:52;16.70;99.90
8408;DHT22;4241;48.452;9.216;2022-10-19T13:30:59;16.70;99.90
8408;DHT22;4241;48.452;9.216;2022-10-19T13:33:41;16.60;99.90
8408;DHT22;4241;48.452;9.216;2022-10-19T13:36:10;16.70;99.90
8408;DHT22;4241;48.452;9.216;2022-10-19T13:38:38;16.60;99.90
8408;DHT22;4241;48.452;9.216;2022-10-19T13:41:10;16.60;99.90
8408;DHT22;4241;48.452;9.216;2022-10-19T13:43:49;16.60;99.90
8408;DHT22;4241;48.452;9.216;2022-10-19T13:46:21;16.50;99.90
8408;DHT22;4241;48.452;9.216;2022-10-19T13:52:02;16.30;99.90
8408;DHT22;4241;48.452;9.216;2022-10-19T13:54:46;16.40;99.90
8408;DHT22;4241;48.452;9.216;2022-10-19T13:57:19;16.20;99.90
8408;DHT22;4241;48.452;9.216;2022-10-19T14:00:04;16.10;99.90
8408;DHT22;4241;48.452;9.216;2022-10-19T14:03:00;16.10;99.90
8408;DHT22;4241;48.452;9.216;2022-10-19T14:11:38;15.80;99.90
8408;DHT22;4241;48.452;9.216;2022-10-19T14:14:12;15.80;99.90
8408;DHT22;4241;48.452;9.216;2022-10-19T14:16:46;15.90;99.90
8408;DHT22;4241;48.452;9.216;2022-10-19T14:19:21;15.70;99.90
8408;DHT22;4241;48.452;9.216;2022-10-19T14:21:52;15.80;99.90
8408;DHT22;4241;48.452;9.216;2022-10-19T14:24:25;16.00;99.90
8408;DHT22;4241;48.452;9.216;2022-10-19T14:26:53;16.10;99.90
8408;DHT22;4241;48.452;9.216;2022-10-19T14:29:20;15.90;99.90
8408;DHT22;4241;48.452;9.216;2022-10-19T14:31:47;15.90;99.90
8408;DHT22;4241;48.452;9.216;2022-10-19T14:34:16;15.90;99.90
8408;DHT22;4241;48.452;9.216;2022-10-19T14:36:45;16.00;99.90
8408;DHT22;4241;48.452;9.216;2022-10-19T14:39:26;16.00;99.90
8408;DHT22;4241;48.452;9.216;2022-10-19T14:41:54;15.90;99.90
8408;DHT22;4241;48.452;9.216;2022-10-19T14:44:33;15.90;99.90
8408;DHT22;4241;48.452;9.216;2022-10-19T14:47:00;15.80;99.90
8408;DHT22;4241;48.452;9.216;2022-10-19T14:49:29;15.80;99.90
8408;DHT22;4241;48.452;9.216;2022-10-19T14:51:59;15.70;99.90
8408;DHT22;4241;48.452;9.216;2022-10-19T14:54:30;15.50;99.90
8408;DHT22;4241;48.452;9.216;2022-10-19T14:57:02;15.70;99.90
8408;DHT22;4241;48.452;9.216;2022-10-19T14:59:35;15.60;99.90
8408;DHT22;4241;48.452;9.216;2022-10-19T15:02:08;15.60;99.90
8408;DHT22;4241;48.452;9.216;2022-10-19T15:04:41;15.60;99.90
8408;DHT22;4241;48.452;9.216;2022-10-19T15:07:16;15.70;99.90
8408;DHT22;4241;48.452;9.216;2022-10-19T15:09:50;15.70;99.90
8408;DHT22;4241;48.452;9.216;2022-10-19T15:12:22;15.50;99.90
8408;DHT22;4241;48.452;9.216;2022-10-19T15:14:51;15.60;99.90
8408;DHT22;4241;48.452;9.216;2022-10-19T15:17:23;15.70;99.90
8408;DHT22;4241;48.452;9.216;2022-10-19T15:19:53;15.60;99.90
8408;DHT22;4241;48.452;9.216;2022-10-19T15:22:23;15.60;99.90
8408;DHT22;4241;48.452;9.216;2022-10-19T15:25:00;15.60;99.90
8408;DHT22;4241;48.452;9.216;2022-10-19T15:27:33;15.40;99.90
8408;DHT22;4241;48.452;9.216;2022-10-19T15:30:02;15.50;99.90
8408;DHT22;4241;48.452;9.216;2022-10-19T15:32:32;15.50;99.90
8408;DHT22;4241;48.452;9.216;2022-10-19T15:35:08;15.60;99.90
8408;DHT22;4241;48.452;9.216;2022-10-19T15:37:36;15.50;99.90
8408;DHT22;4241;48.452;9.216;2022-10-19T15:40:12;15.40;99.90
8408;DHT22;4241;48.452;9.216;2022-10-19T15:42:44;15.40;99.90
8408;DHT22;4241;48.452;9.216;2022-10-19T15:45:33;15.40;99.90
8408;DHT22;4241;48.452;9.216;2022-10-19T15:48:26;15.50;99.90
8408;DHT22;4241;48.452;9.216;2022-10-19T15:50:55;15.30;99.90
8408;DHT22;4241;48.452;9.216;2022-10-19T15:53:24;15.30;99.90
8408;DHT22;4241;48.452;9.216;2022-10-19T15:55:51;15.30;99.90
8408;DHT22;4241;48.452;9.216;2022-10-19T15:58:18;15.30;99.90
8408;DHT22;4241;48.452;9.216;2022-10-19T16:00:46;15.20;99.90
8408;DHT22;4241;48.452;9.216;2022-10-19T16:03:13;15.10;99.90
8408;DHT22;4241;48.452;9.216;2022-10-19T16:05:41;15.10;99.90
8408;DHT22;4241;48.452;9.216;2022-10-19T16:08:10;15.10;99.90
8408;DHT22;4241;48.452;9.216;2022-10-19T16:10:37;15.10;99.90
8408;DHT22;4241;48.452;9.216;2022-10-19T16:13:04;15.00;99.90
8408;DHT22;4241;48.452;9.216;2022-10-19T16:15:31;14.90;99.90
8408;DHT22;4241;48.452;9.216;2022-10-19T16:17:59;14.90;99.90
8408;DHT22;4241;48.452;9.216;2022-10-19T16:20:28;14.90;99.90
8408;DHT22;4241;48.452;9.216;2022-10-19T16:22:56;14.80;99.90
8408;DHT22;4241;48.452;9.216;2022-10-19T16:25:25;14.80;99.90
8408;DHT22;4241;48.452;9.216;2022-10-19T16:27:52;14.80;99.90
8408;DHT22;4241;48.452;9.216;2022-10-19T16:30:19;14.80;99.90
8408;DHT22;4241;48.452;9.216;2022-10-19T16:32:47;14.70;99.90
8408;DHT22;4241;48.452;9.216;2022-10-19T16:35:14;14.60;99.90
8408;DHT22;4241;48.452;9.216;2022-10-19T16:37:41;14.70;99.90
8408;DHT22;4241;48.452;9.216;2022-10-19T16:40:09;14.70;99.90
8408;DHT22;4241;48.452;9.216;2022-10-19T16:42:38;14.70;99.90
8408;DHT22;4241;48.452;9.216;2022-10-19T16:45:05;14.60;99.90
8408;DHT22;4241;48.452;9.216;2022-10-19T16:47:33;14.60;99.90
8408;DHT22;4241;48.452;9.216;2022-10-19T16:50:00;14.60;99.90